createdAt,value
2022-09-20T00:02:47.717Z,6.85
2022-09-20T00:07:49.554Z,5.38
2022-09-20T00:12:51.361Z,4.47
2022-09-20T00:17:53.116Z,5.82
2022-09-20T00:22:54.833Z,6.32
2022-09-20T00:27:56.573Z,5.85
2022-09-20T00:32:58.377Z,8.23
2022-09-20T00:38:00.092Z,3.88
2022-09-20T00:43:01.795Z,4.75
2022-09-20T00:48:10.400Z,3.72
2022-09-20T00:53:14.242Z,6.07
2022-09-20T00:58:17.534Z,3.80
2022-09-20T01:03:22.999Z,6.07
2022-09-20T01:08:25.389Z,3.47
2022-09-20T01:13:27.144Z,4.18
2022-09-20T01:18:31.920Z,4.90
2022-09-20T01:24:15.692Z,4.07
2022-09-20T01:29:20.120Z,3.35
2022-09-20T01:34:33.522Z,3.58
2022-09-20T01:39:46.935Z,4.13
2022-09-20T01:45:19.648Z,2.85
2022-09-20T01:50:43.309Z,4.35
2022-09-20T01:56:29.276Z,4.10
2022-09-20T02:01:31.107Z,4.72
2022-09-20T02:06:47.438Z,6.60
2022-09-20T02:12:10.678Z,6.57
2022-09-20T02:17:40.064Z,6.18
2022-09-20T02:23:07.561Z,9.18
2022-09-20T02:28:53.983Z,6.75
2022-09-20T02:34:37.979Z,8.32
2022-09-20T02:39:54.050Z,6.07
2022-09-20T02:45:23.949Z,5.50
2022-09-20T02:56:12.182Z,4.43
2022-09-20T03:01:40.934Z,5.20
2022-09-20T03:06:58.274Z,3.15
2022-09-20T03:12:03.080Z,4.57
2022-09-20T03:17:21.955Z,2.53
2022-09-20T03:22:45.363Z,4.37
2022-09-20T03:28:25.968Z,3.83
2022-09-20T03:33:45.549Z,3.72
2022-09-20T03:44:19.100Z,2.97
2022-09-20T03:49:42.401Z,3.63
2022-09-20T03:54:54.042Z,5.60
2022-09-20T04:00:05.546Z,8.75
2022-09-20T04:05:53.879Z,10.23
2022-09-20T04:11:37.438Z,10.50
2022-09-20T04:17:12.060Z,10.07
2022-09-20T04:22:14.775Z,9.23
2022-09-20T04:27:49.832Z,7.78
2022-09-20T04:32:56.191Z,8.95
2022-09-20T04:38:05.521Z,12.52
2022-09-20T04:48:56.651Z,10.18
2022-09-20T04:54:04.390Z,6.18
2022-09-20T04:59:08.224Z,7.45
2022-09-20T05:04:26.277Z,5.40
2022-09-20T05:09:43.302Z,3.83
2022-09-20T05:15:08.592Z,6.75
2022-09-20T05:21:03.527Z,4.28
2022-09-20T05:26:19.452Z,5.43
2022-09-20T05:31:45.991Z,4.75
2022-09-20T05:37:08.074Z,4.60
2022-09-20T05:42:26.923Z,3.08
2022-09-20T05:47:56.241Z,5.07
2022-09-20T05:53:16.662Z,4.57
2022-09-20T05:58:24.131Z,4.05
2022-09-20T06:03:45.475Z,3.70
2022-09-20T06:08:58.878Z,5.03
2022-09-20T06:14:25.263Z,7.55
2022-09-20T06:19:47.205Z,3.63
2022-09-20T06:25:07.036Z,7.00
2022-09-20T06:30:16.960Z,5.63
2022-09-20T06:35:20.574Z,7.13
2022-09-20T06:41:07.817Z,5.18
2022-09-20T06:46:10.523Z,4.72
2022-09-20T06:51:12.477Z,4.72
2022-09-20T06:56:23.722Z,3.88
2022-09-20T07:01:30.126Z,4.82
2022-09-20T07:06:33.747Z,6.63
2022-09-20T07:11:35.588Z,5.38
2022-09-20T07:16:38.450Z,5.53
2022-09-20T07:21:40.445Z,8.00
2022-09-20T07:27:05.100Z,10.75
2022-09-20T07:32:07.018Z,9.85
2022-09-20T07:37:08.752Z,9.07
2022-09-20T07:42:10.441Z,8.23
2022-09-20T07:47:14.505Z,5.05
2022-09-20T07:52:16.283Z,6.22
2022-09-20T07:57:18.090Z,4.90
2022-09-20T08:02:19.850Z,7.18
2022-09-20T08:07:21.681Z,6.20
2022-09-20T08:17:47.451Z,6.20
2022-09-20T08:23:06.248Z,4.65
2022-09-20T08:28:10.984Z,4.15
2022-09-20T08:33:12.876Z,5.18
2022-09-20T08:43:52.179Z,7.65
2022-09-20T08:48:54.540Z,4.60
2022-09-20T08:53:58.057Z,4.03
2022-09-20T08:59:00.885Z,4.88
2022-09-20T09:04:13.612Z,4.18
2022-09-20T09:09:25.722Z,4.35
2022-09-20T09:14:49.442Z,3.08
2022-09-20T09:19:59.998Z,3.42
2022-09-20T09:25:10.698Z,5.78
2022-09-20T09:30:26.354Z,3.97
2022-09-20T09:35:31.852Z,4.00
2022-09-20T09:40:33.632Z,2.80
2022-09-20T09:45:40.199Z,4.07
2022-09-20T09:50:42.468Z,2.03
2022-09-20T09:56:03.195Z,2.90
2022-09-20T10:01:10.786Z,4.00
2022-09-20T10:06:24.976Z,3.80
2022-09-20T10:11:42.937Z,4.70
2022-09-20T10:17:17.348Z,3.90
2022-09-20T10:23:00.320Z,6.80
2022-09-20T10:28:32.229Z,3.75
2022-09-20T10:33:49.395Z,2.40
2022-09-20T10:39:05.227Z,4.90
2022-09-20T10:44:27.165Z,4.78
2022-09-20T10:49:47.216Z,4.45
2022-09-20T10:55:16.819Z,5.93
2022-09-20T11:00:25.591Z,8.90
2022-09-20T11:05:46.412Z,6.07
2022-09-20T11:10:57.357Z,8.65
2022-09-20T11:16:23.297Z,3.47
2022-09-20T11:21:28.182Z,1.98
2022-09-20T11:26:52.011Z,3.20
2022-09-20T11:32:00.985Z,3.88
2022-09-20T11:37:03.530Z,5.40
2022-09-20T11:42:07.108Z,4.13
2022-09-20T11:47:50.041Z,3.72
2022-09-20T11:53:13.429Z,4.53
2022-09-20T11:58:19.086Z,4.95
2022-09-20T12:03:24.163Z,4.15
2022-09-20T12:08:48.837Z,2.90
2022-09-20T12:14:05.667Z,5.15
2022-09-20T12:19:22.207Z,6.13
2022-09-20T12:24:32.490Z,5.97
2022-09-20T12:30:00.022Z,5.85
2022-09-20T12:35:02.090Z,7.93
2022-09-20T12:40:04.763Z,8.05
2022-09-20T12:45:16.782Z,5.38
2022-09-20T12:50:40.586Z,4.68
2022-09-20T12:56:01.144Z,3.88
2022-09-20T13:01:08.419Z,3.38
2022-09-20T13:06:16.501Z,2.72
2022-09-20T13:11:24.761Z,1.70
2022-09-20T13:16:53.978Z,1.23
2022-09-20T13:22:20.731Z,1.67
2022-09-20T13:27:48.256Z,1.33
2022-09-20T13:32:51.512Z,1.27
2022-09-20T13:37:53.198Z,1.90
2022-09-20T13:43:22.047Z,3.10
2022-09-20T13:48:25.371Z,1.63
2022-09-20T13:53:41.072Z,1.27
2022-09-20T13:58:43.913Z,3.45
2022-09-20T14:03:45.788Z,2.40
2022-09-20T14:08:51.192Z,2.17
2022-09-20T14:13:58.587Z,1.52
2022-09-20T14:19:02.054Z,1.05
2022-09-20T14:24:27.010Z,1.88
2022-09-20T14:29:34.711Z,1.38
2022-09-20T14:34:38.474Z,1.38
2022-09-20T14:39:53.232Z,2.03
2022-09-20T14:44:55.267Z,2.75
2022-09-20T14:49:58.864Z,1.10
2022-09-20T14:55:13.701Z,2.60
2022-09-20T15:00:17.120Z,2.10
2022-09-20T15:05:26.064Z,2.38
2022-09-20T15:10:27.903Z,2.00
2022-09-20T15:15:29.684Z,2.83
2022-09-20T15:20:31.415Z,2.15
2022-09-20T15:25:33.393Z,3.17
2022-09-20T15:30:35.247Z,1.00
2022-09-20T15:35:37.545Z,2.20
2022-09-20T15:40:43.703Z,4.00
2022-09-20T15:45:57.694Z,5.95
2022-09-20T15:51:08.547Z,3.58
2022-09-20T15:56:37.814Z,5.53
2022-09-20T16:01:41.693Z,3.50
2022-09-20T16:06:45.509Z,2.08
2022-09-20T16:11:48.193Z,6.57
2022-09-20T16:16:50.037Z,3.15
2022-09-20T16:21:58.327Z,4.13
2022-09-20T16:27:01.862Z,6.97
2022-09-20T16:32:05.344Z,3.90
2022-09-20T16:37:11.893Z,4.00
2022-09-20T16:42:13.769Z,4.95
2022-09-20T16:47:23.976Z,4.63
2022-09-20T16:52:26.537Z,7.70
2022-09-20T16:57:28.833Z,3.63
2022-09-20T17:02:30.543Z,11.45
2022-09-20T17:07:32.564Z,4.60
2022-09-20T17:12:41.309Z,4.57
2022-09-20T17:17:43.044Z,5.47
2022-09-20T17:22:45.186Z,5.65
2022-09-20T17:27:51.432Z,5.03
2022-09-20T17:32:53.621Z,4.63
2022-09-20T17:37:55.368Z,7.10
2022-09-20T17:42:57.080Z,5.95
2022-09-20T17:47:58.809Z,7.78
2022-09-20T17:53:00.546Z,6.65
2022-09-20T17:58:02.320Z,7.82
2022-09-20T18:03:04.991Z,8.90
2022-09-20T18:08:06.900Z,8.25
2022-09-20T18:13:08.627Z,6.80
2022-09-20T18:18:11.001Z,7.20
2022-09-20T18:23:12.921Z,10.60
2022-09-20T18:28:14.614Z,10.15
2022-09-20T18:33:17.768Z,13.65
2022-09-20T18:38:19.476Z,11.38
2022-09-20T18:43:21.200Z,8.77
2022-09-20T18:48:33.500Z,9.60
2022-09-20T18:53:37.624Z,7.55
2022-09-20T18:58:40.000Z,11.50
2022-09-20T19:04:04.208Z,10.30
2022-09-20T19:09:13.076Z,9.80
2022-09-20T19:14:27.299Z,10.07
2022-09-20T19:19:50.857Z,10.38
2022-09-20T19:25:07.716Z,9.02
2022-09-20T19:30:14.068Z,9.80
2022-09-20T19:35:28.412Z,8.57
2022-09-20T19:40:48.828Z,7.63
2022-09-20T19:46:13.301Z,10.40
2022-09-20T19:51:17.038Z,8.55
2022-09-20T19:56:27.624Z,12.43
2022-09-20T20:01:30.238Z,8.55
2022-09-20T20:07:03.165Z,8.48
2022-09-20T20:12:14.902Z,7.03
2022-09-20T20:17:38.210Z,9.35
2022-09-20T20:22:57.261Z,7.72
2022-09-20T20:27:59.031Z,8.02
2022-09-20T20:33:00.894Z,8.63
2022-09-20T20:38:05.840Z,10.35
2022-09-20T20:43:09.369Z,8.20
2022-09-20T20:48:11.246Z,13.50
2022-09-20T20:53:13.095Z,8.48
2022-09-20T20:58:14.815Z,9.07
2022-09-20T21:03:16.524Z,10.07
2022-09-20T21:08:18.255Z,14.18
2022-09-20T21:13:20.143Z,10.20
2022-09-20T21:18:21.877Z,13.00
2022-09-20T21:23:23.614Z,13.57
2022-09-20T21:28:25.377Z,11.63
2022-09-20T21:33:30.968Z,11.80
2022-09-20T21:38:35.402Z,10.55
2022-09-20T21:43:37.829Z,13.20
2022-09-20T21:48:39.888Z,11.35
2022-09-20T21:53:41.962Z,10.70
2022-09-20T21:58:45.875Z,12.27
2022-09-20T22:03:53.026Z,10.43
2022-09-20T22:09:03.605Z,13.15
2022-09-20T22:14:06.513Z,10.98
2022-09-20T22:19:10.931Z,8.52
2022-09-20T22:24:13.787Z,9.13
2022-09-20T22:29:16.947Z,9.30
2022-09-20T22:34:20.526Z,8.25
2022-09-20T22:39:22.217Z,9.38
2022-09-20T22:44:23.917Z,11.85
2022-09-20T22:49:25.607Z,9.70
2022-09-20T22:54:27.358Z,8.45
2022-09-20T22:59:29.058Z,8.25
2022-09-20T23:04:30.834Z,9.82
2022-09-20T23:09:32.586Z,8.98
2022-09-20T23:14:34.282Z,6.30
2022-09-20T23:19:35.972Z,7.38
2022-09-20T23:24:37.680Z,6.88
2022-09-20T23:29:39.378Z,7.32
2022-09-20T23:34:41.092Z,7.57
2022-09-20T23:39:42.818Z,7.53
2022-09-20T23:44:44.575Z,5.28
2022-09-20T23:49:46.322Z,5.70
2022-09-20T23:54:48.007Z,8.55
2022-09-20T23:59:49.702Z,7.47
